createdAt,value
2022-10-17T00:01:06.444Z,27.70
2022-10-17T00:03:35.268Z,27.70
2022-10-17T00:06:10.301Z,27.70
2022-10-17T00:08:40.710Z,27.70
2022-10-17T00:11:14.678Z,27.70
2022-10-17T00:13:42.416Z,27.70
2022-10-17T00:16:10.429Z,27.70
2022-10-17T00:18:38.257Z,27.60
2022-10-17T00:21:07.551Z,27.60
2022-10-17T00:23:35.295Z,27.60
2022-10-17T00:26:05.702Z,27.60
2022-10-17T00:28:33.885Z,27.60
2022-10-17T00:31:04.634Z,27.60
2022-10-17T00:33:33.865Z,27.60
2022-10-17T00:36:10.023Z,27.60
2022-10-17T00:38:38.376Z,27.60
2022-10-17T00:41:07.332Z,27.60
2022-10-17T00:43:55.668Z,27.60
2022-10-17T00:46:26.337Z,27.60
2022-10-17T00:48:57.892Z,27.60
2022-10-17T00:51:35.867Z,27.60
2022-10-17T00:54:05.932Z,27.60
2022-10-17T00:56:35.390Z,27.60
2022-10-17T00:59:03.752Z,27.60
2022-10-17T01:01:31.784Z,27.60
2022-10-17T01:03:59.733Z,27.50
2022-10-17T01:06:28.832Z,27.60
2022-10-17T01:08:57.300Z,27.50
2022-10-17T01:11:40.960Z,27.50
2022-10-17T01:14:26.713Z,27.50
2022-10-17T01:17:07.991Z,27.50
2022-10-17T01:19:57.815Z,27.50
2022-10-17T01:22:35.245Z,27.50
2022-10-17T01:25:27.806Z,27.50
2022-10-17T01:28:25.338Z,27.50
2022-10-17T01:31:05.491Z,27.50
2022-10-17T01:33:48.507Z,27.50
2022-10-17T01:36:31.982Z,27.50
2022-10-17T01:39:10.913Z,27.50
2022-10-17T01:41:48.263Z,27.50
2022-10-17T01:44:22.876Z,27.50
2022-10-17T01:46:58.759Z,27.50
2022-10-17T01:49:30.607Z,27.50
2022-10-17T01:52:05.015Z,27.50
2022-10-17T01:54:40.649Z,27.40
2022-10-17T01:57:17.898Z,27.40
2022-10-17T01:59:50.619Z,27.40
2022-10-17T02:02:21.824Z,27.40
2022-10-17T02:04:53.262Z,27.40
2022-10-17T02:07:21.065Z,27.40
2022-10-17T02:09:48.876Z,27.40
2022-10-17T02:12:48.635Z,27.40
2022-10-17T02:15:55.895Z,27.40
2022-10-17T02:18:54.422Z,27.40
2022-10-17T02:21:36.898Z,27.40
2022-10-17T02:24:16.759Z,27.40
2022-10-17T02:26:53.862Z,27.40
2022-10-17T02:29:26.670Z,27.40
2022-10-17T02:32:03.731Z,27.40
2022-10-17T02:34:38.377Z,27.40
2022-10-17T02:37:10.468Z,27.40
2022-10-17T02:39:41.305Z,27.40
2022-10-17T02:42:14.045Z,27.40
2022-10-17T02:44:45.262Z,27.40
2022-10-17T02:47:23.033Z,27.40
2022-10-17T02:49:55.748Z,27.30
2022-10-17T02:52:32.381Z,27.30
2022-10-17T02:55:10.706Z,27.30
2022-10-17T02:57:41.910Z,27.30
2022-10-17T03:00:14.154Z,27.30
2022-10-17T03:02:45.239Z,27.30
2022-10-17T03:05:17.726Z,27.30
2022-10-17T03:07:45.516Z,27.30
2022-10-17T03:10:13.598Z,27.30
2022-10-17T03:12:41.457Z,27.30
2022-10-17T03:15:11.336Z,27.30
2022-10-17T03:17:39.533Z,27.30
2022-10-17T03:20:08.799Z,27.30
2022-10-17T03:22:37.863Z,27.30
2022-10-17T03:25:06.324Z,27.30
2022-10-17T03:27:34.098Z,27.30
2022-10-17T03:30:01.851Z,27.30
2022-10-17T03:32:29.560Z,27.20
2022-10-17T03:34:57.323Z,27.20
2022-10-17T03:37:25.058Z,27.30
2022-10-17T03:39:54.302Z,27.20
2022-10-17T03:42:22.137Z,27.20
2022-10-17T03:44:49.882Z,27.20
2022-10-17T03:47:17.598Z,27.20
2022-10-17T03:49:45.437Z,27.20
2022-10-17T03:52:13.944Z,27.20
2022-10-17T03:54:42.010Z,27.20
2022-10-17T03:57:11.198Z,27.20
2022-10-17T03:59:39.690Z,27.20
2022-10-17T04:02:07.477Z,27.20
2022-10-17T04:04:35.283Z,27.20
2022-10-17T04:07:03.078Z,27.20
2022-10-17T04:09:30.842Z,27.20
2022-10-17T04:11:58.623Z,27.20
2022-10-17T04:14:27.871Z,27.20
2022-10-17T04:16:55.808Z,27.20
2022-10-17T04:19:23.517Z,27.20
2022-10-17T04:21:51.300Z,27.20
2022-10-17T04:24:19.416Z,27.20
2022-10-17T04:26:50.029Z,27.20
2022-10-17T04:29:17.849Z,27.20
2022-10-17T04:31:46.969Z,27.10
2022-10-17T04:34:14.828Z,27.10
2022-10-17T04:36:42.614Z,27.10
2022-10-17T04:39:10.584Z,27.10
2022-10-17T04:41:38.374Z,27.10
2022-10-17T04:44:06.487Z,27.10
2022-10-17T04:46:35.766Z,27.10
2022-10-17T04:49:04.994Z,27.10
2022-10-17T04:51:32.783Z,27.10
2022-10-17T04:54:00.522Z,27.10
2022-10-17T04:56:28.261Z,27.10
2022-10-17T04:58:56.221Z,27.10
2022-10-17T05:01:25.149Z,27.10
2022-10-17T05:03:53.820Z,27.10
2022-10-17T05:06:25.259Z,27.10
2022-10-17T05:08:53.045Z,27.10
2022-10-17T05:11:23.727Z,27.10
2022-10-17T05:13:52.972Z,27.10
2022-10-17T05:16:21.085Z,27.10
2022-10-17T05:18:52.916Z,27.10
2022-10-17T05:21:24.306Z,27.00
2022-10-17T05:23:53.077Z,27.10
2022-10-17T05:26:21.801Z,27.00
2022-10-17T05:28:49.685Z,27.10
2022-10-17T05:31:17.519Z,27.00
2022-10-17T05:33:45.638Z,27.00
2022-10-17T05:36:13.516Z,27.00
2022-10-17T05:38:42.765Z,27.00
2022-10-17T05:41:11.970Z,27.00
2022-10-17T05:43:39.760Z,27.00
2022-10-17T05:46:08.087Z,27.00
2022-10-17T05:48:36.315Z,27.00
2022-10-17T05:51:08.716Z,27.00
2022-10-17T05:53:38.970Z,27.00
2022-10-17T05:56:11.469Z,27.00
2022-10-17T05:58:52.555Z,27.00
2022-10-17T06:01:22.098Z,27.00
2022-10-17T06:03:49.864Z,27.00
2022-10-17T06:06:18.987Z,27.00
2022-10-17T06:08:47.232Z,27.00
2022-10-17T06:11:16.541Z,27.00
2022-10-17T06:13:44.328Z,26.90
2022-10-17T06:16:12.100Z,27.00
2022-10-17T06:18:40.273Z,27.00
2022-10-17T06:21:11.942Z,27.00
2022-10-17T06:23:40.087Z,27.00
2022-10-17T06:26:08.488Z,27.00
2022-10-17T06:28:38.157Z,27.00
2022-10-17T06:31:08.015Z,27.00
2022-10-17T06:33:36.370Z,27.00
2022-10-17T06:36:06.199Z,27.00
2022-10-17T06:38:35.628Z,27.00
2022-10-17T06:41:08.787Z,27.00
2022-10-17T06:43:38.943Z,27.00
2022-10-17T06:46:07.859Z,27.00
2022-10-17T06:48:35.742Z,27.00
2022-10-17T06:51:05.816Z,27.00
2022-10-17T06:53:35.761Z,27.00
2022-10-17T06:56:04.664Z,27.10
2022-10-17T06:58:35.028Z,27.10
2022-10-17T07:03:37.535Z,27.10
2022-10-17T07:06:06.572Z,27.10
2022-10-17T07:08:34.650Z,27.10
2022-10-17T07:11:11.347Z,27.20
2022-10-17T07:13:39.507Z,27.20
2022-10-17T07:16:09.617Z,27.20
2022-10-17T07:18:37.563Z,27.20
2022-10-17T07:21:06.204Z,27.20
2022-10-17T07:23:36.500Z,27.30
2022-10-17T07:26:07.791Z,27.30
2022-10-17T07:28:36.466Z,27.40
2022-10-17T07:31:06.580Z,27.40
2022-10-17T07:33:36.083Z,27.50
2022-10-17T07:36:06.453Z,27.60
2022-10-17T07:38:34.918Z,27.60
2022-10-17T07:41:06.022Z,27.70
2022-10-17T07:43:34.764Z,27.80
2022-10-17T07:46:05.178Z,27.80
2022-10-17T07:48:32.963Z,27.90
2022-10-17T07:51:06.155Z,28.00
2022-10-17T07:53:36.366Z,28.10
2022-10-17T07:56:07.669Z,28.10
2022-10-17T07:58:36.707Z,28.20
2022-10-17T08:01:08.346Z,28.30
2022-10-17T08:03:38.662Z,28.40
2022-10-17T08:06:07.901Z,28.50
2022-10-17T08:08:35.726Z,28.50
2022-10-17T08:11:06.553Z,28.60
2022-10-17T08:13:34.771Z,28.70
2022-10-17T08:16:03.972Z,28.80
2022-10-17T08:18:32.145Z,28.90
2022-10-17T08:21:01.536Z,29.00
2022-10-17T08:23:30.908Z,29.10
2022-10-17T08:26:00.864Z,29.10
2022-10-17T08:28:28.811Z,29.20
2022-10-17T08:31:04.699Z,29.30
2022-10-17T08:33:33.161Z,29.40
2022-10-17T08:36:01.080Z,29.50
2022-10-17T08:38:35.426Z,29.60
2022-10-17T08:41:12.910Z,29.70
2022-10-17T08:44:00.434Z,29.80
2022-10-17T08:46:33.515Z,29.90
2022-10-17T08:49:06.605Z,29.90
2022-10-17T08:51:45.106Z,29.90
2022-10-17T08:54:20.918Z,29.90
2022-10-17T08:56:52.116Z,29.90
2022-10-17T08:59:26.570Z,29.90
2022-10-17T09:02:03.492Z,29.80
2022-10-17T09:04:49.908Z,29.80
2022-10-17T09:07:28.454Z,29.70
2022-10-17T09:10:11.599Z,29.60
2022-10-17T09:12:50.695Z,29.60
2022-10-17T09:16:00.029Z,29.50
2022-10-17T09:18:32.612Z,29.50
2022-10-17T09:21:16.889Z,29.50
2022-10-17T09:23:53.199Z,29.50
2022-10-17T09:26:29.765Z,29.50
2022-10-17T09:29:01.233Z,29.60
2022-10-17T09:31:41.403Z,29.60
2022-10-17T09:34:12.018Z,29.70
2022-10-17T09:36:42.481Z,29.80
2022-10-17T09:39:15.597Z,29.80
2022-10-17T09:41:49.628Z,29.90
2022-10-17T09:44:24.157Z,30.00
2022-10-17T09:47:13.788Z,30.00
2022-10-17T09:49:44.109Z,30.10
2022-10-17T09:52:16.888Z,30.20
2022-10-17T09:54:48.786Z,30.20
2022-10-17T09:57:20.448Z,30.30
2022-10-17T09:59:58.555Z,30.30
2022-10-17T10:02:29.561Z,30.40
2022-10-17T10:05:04.246Z,30.40
2022-10-17T10:07:36.276Z,30.40
2022-10-17T10:10:08.402Z,30.40
2022-10-17T10:12:40.220Z,30.50
2022-10-17T10:15:36.231Z,30.50
2022-10-17T10:18:04.586Z,30.50
2022-10-17T10:20:36.476Z,30.50
2022-10-17T10:23:17.350Z,30.50
2022-10-17T10:25:56.954Z,30.50
2022-10-17T10:28:32.929Z,30.50
2022-10-17T10:31:06.559Z,30.50
2022-10-17T10:33:41.886Z,30.50
2022-10-17T10:36:10.343Z,30.50
2022-10-17T10:38:42.432Z,30.50
2022-10-17T10:41:12.707Z,30.50
2022-10-17T10:43:46.667Z,30.50
2022-10-17T10:46:21.862Z,30.50
2022-10-17T10:48:58.496Z,30.50
2022-10-17T10:51:34.868Z,30.50
2022-10-17T10:54:14.064Z,30.50
2022-10-17T10:56:49.849Z,30.50
2022-10-17T10:59:27.859Z,30.50
2022-10-17T11:02:02.513Z,30.50
2022-10-17T11:04:38.557Z,30.40
2022-10-17T11:07:12.910Z,30.40
2022-10-17T11:09:57.240Z,30.40
2022-10-17T11:12:31.814Z,30.40
2022-10-17T11:15:15.468Z,30.40
2022-10-17T11:17:54.036Z,30.40
2022-10-17T11:20:31.501Z,30.40
2022-10-17T11:23:13.119Z,30.40
2022-10-17T11:25:42.659Z,30.40
2022-10-17T11:28:16.646Z,30.40
2022-10-17T11:30:53.238Z,30.40
2022-10-17T11:33:35.146Z,30.40
2022-10-17T11:36:07.732Z,30.40
2022-10-17T11:38:48.690Z,30.30
2022-10-17T11:41:23.981Z,30.30
2022-10-17T11:43:58.008Z,30.30
2022-10-17T11:46:29.567Z,30.30
2022-10-17T11:49:07.552Z,30.30
2022-10-17T11:52:02.827Z,30.30
2022-10-17T11:54:39.643Z,30.30
2022-10-17T11:57:38.503Z,30.30
2022-10-17T12:00:27.874Z,30.30
2022-10-17T12:03:14.617Z,30.30
2022-10-17T12:05:51.598Z,30.30
2022-10-17T12:08:32.112Z,30.30
2022-10-17T12:11:08.480Z,30.30
2022-10-17T12:13:55.060Z,30.20
2022-10-17T12:16:46.059Z,30.20
2022-10-17T12:19:28.565Z,30.30
2022-10-17T12:22:04.218Z,30.30
2022-10-17T12:24:41.347Z,30.30
2022-10-17T12:27:38.003Z,30.30
2022-10-17T12:30:21.104Z,30.20
2022-10-17T12:33:07.969Z,30.20
2022-10-17T12:35:40.040Z,30.20
2022-10-17T12:38:29.163Z,30.20
2022-10-17T12:41:06.282Z,30.20
2022-10-17T12:43:53.278Z,30.20
2022-10-17T12:46:58.020Z,30.20
2022-10-17T12:49:42.335Z,30.20
2022-10-17T12:52:57.960Z,30.20
2022-10-17T12:55:27.140Z,30.20
2022-10-17T12:58:00.064Z,30.20
2022-10-17T13:00:38.139Z,30.20
2022-10-17T13:03:13.857Z,30.20
2022-10-17T13:05:46.838Z,30.20
2022-10-17T13:08:22.125Z,30.20
2022-10-17T13:10:53.412Z,30.10
2022-10-17T13:13:26.500Z,30.10
2022-10-17T13:15:56.318Z,30.10
2022-10-17T13:18:26.254Z,30.10
2022-10-17T13:21:01.143Z,30.10
2022-10-17T13:23:35.095Z,30.10
2022-10-17T13:26:16.349Z,30.10
2022-10-17T13:28:44.772Z,30.10
2022-10-17T13:31:31.760Z,30.10
2022-10-17T13:34:02.017Z,30.10
2022-10-17T13:36:32.222Z,30.10
2022-10-17T13:39:12.332Z,30.10
2022-10-17T13:41:43.034Z,30.10
2022-10-17T13:44:16.151Z,30.10
2022-10-17T13:46:45.098Z,30.10
2022-10-17T13:49:25.742Z,30.10
2022-10-17T13:51:57.285Z,30.10
2022-10-17T13:54:40.120Z,30.10
2022-10-17T13:57:21.385Z,30.00
2022-10-17T13:59:52.793Z,30.00
2022-10-17T14:02:23.696Z,30.00
2022-10-17T14:05:16.683Z,30.00
2022-10-17T14:08:10.800Z,30.00
2022-10-17T14:10:42.975Z,30.00
2022-10-17T14:13:23.614Z,30.00
2022-10-17T14:15:55.533Z,30.00
2022-10-17T14:18:33.280Z,30.00
2022-10-17T14:24:13.854Z,30.00
2022-10-17T14:26:51.332Z,30.00
2022-10-17T14:29:26.130Z,30.00
2022-10-17T14:32:02.711Z,30.00
2022-10-17T14:34:35.342Z,30.00
2022-10-17T14:37:10.187Z,29.90
2022-10-17T14:39:38.964Z,29.90
2022-10-17T14:42:08.131Z,29.90
2022-10-17T14:44:37.416Z,29.90
2022-10-17T14:47:38.136Z,29.90
2022-10-17T14:50:08.804Z,29.90
2022-10-17T14:52:38.857Z,29.90
2022-10-17T14:55:25.659Z,29.90
2022-10-17T14:57:55.137Z,29.90
2022-10-17T15:00:25.041Z,29.90
2022-10-17T15:02:55.217Z,29.90
2022-10-17T15:05:24.950Z,29.90
2022-10-17T15:07:53.415Z,29.90
2022-10-17T15:10:35.717Z,29.80
2022-10-17T15:15:53.699Z,29.80
2022-10-17T15:18:21.518Z,29.80
2022-10-17T15:20:55.355Z,29.80
2022-10-17T15:23:32.552Z,29.80
2022-10-17T15:26:00.309Z,29.80
2022-10-17T15:28:29.420Z,29.80
2022-10-17T15:30:57.187Z,29.80
2022-10-17T15:33:25.050Z,29.80
2022-10-17T15:35:53.107Z,29.80
2022-10-17T15:38:20.898Z,29.80
2022-10-17T15:40:50.889Z,29.80
2022-10-17T15:43:19.827Z,29.80
2022-10-17T15:45:49.635Z,29.70
2022-10-17T15:48:25.471Z,29.70
2022-10-17T15:50:53.203Z,29.70
2022-10-17T15:53:20.988Z,29.70
2022-10-17T15:55:50.886Z,29.70
2022-10-17T15:58:20.693Z,29.70
2022-10-17T16:00:49.901Z,29.70
2022-10-17T16:03:17.705Z,29.70
2022-10-17T16:05:45.492Z,29.70
2022-10-17T16:08:13.285Z,29.70
2022-10-17T16:10:41.934Z,29.70
2022-10-17T16:13:18.530Z,29.70
2022-10-17T16:15:46.468Z,29.70
2022-10-17T16:18:15.610Z,29.70
2022-10-17T16:20:43.385Z,29.70
2022-10-17T16:23:14.327Z,29.70
2022-10-17T16:25:42.576Z,29.70
2022-10-17T16:28:11.924Z,29.60
2022-10-17T16:30:46.025Z,29.60
2022-10-17T16:33:15.138Z,29.60
2022-10-17T16:35:43.122Z,29.60
2022-10-17T16:38:10.918Z,29.60
2022-10-17T16:40:40.411Z,29.60
2022-10-17T16:43:08.931Z,29.60
2022-10-17T16:45:37.406Z,29.60
2022-10-17T16:48:05.695Z,29.60
2022-10-17T16:50:35.740Z,29.60
2022-10-17T16:53:04.039Z,29.60
2022-10-17T16:55:31.722Z,29.60
2022-10-17T16:57:59.947Z,29.60
2022-10-17T17:00:27.826Z,29.50
2022-10-17T17:02:55.581Z,29.50
2022-10-17T17:05:23.343Z,29.50
2022-10-17T17:07:52.513Z,29.50
2022-10-17T17:10:20.260Z,29.50
2022-10-17T17:12:48.137Z,29.50
2022-10-17T17:15:15.969Z,29.50
2022-10-17T17:17:54.966Z,29.50
2022-10-17T17:20:23.370Z,29.50
2022-10-17T17:22:52.707Z,29.40
2022-10-17T17:25:20.510Z,29.50
2022-10-17T17:27:48.381Z,29.40
2022-10-17T17:30:16.924Z,29.40
2022-10-17T17:32:44.644Z,29.40
2022-10-17T17:35:12.368Z,29.40
2022-10-17T17:37:40.152Z,29.40
2022-10-17T17:40:10.981Z,29.40
2022-10-17T17:42:38.569Z,29.40
2022-10-17T17:45:07.566Z,29.50
2022-10-17T17:47:35.342Z,29.40
2022-10-17T17:50:03.608Z,29.40
2022-10-17T17:52:31.818Z,29.40
2022-10-17T17:54:59.747Z,29.40
2022-10-17T17:57:30.476Z,29.40
2022-10-17T17:59:58.225Z,29.40
2022-10-17T18:02:25.955Z,29.40
2022-10-17T18:04:53.959Z,29.40
2022-10-17T18:07:22.126Z,29.40
2022-10-17T18:09:51.190Z,29.40
2022-10-17T18:12:19.476Z,29.40
2022-10-17T18:14:49.162Z,29.40
2022-10-17T18:17:16.926Z,29.40
2022-10-17T18:19:44.833Z,29.40
2022-10-17T18:22:12.749Z,29.40
2022-10-17T18:24:40.570Z,29.40
2022-10-17T18:27:08.449Z,29.40
2022-10-17T18:29:36.622Z,29.40
2022-10-17T18:32:06.220Z,29.40
2022-10-17T18:34:34.118Z,29.40
2022-10-17T18:37:02.545Z,29.30
2022-10-17T18:39:30.498Z,29.30
2022-10-17T18:41:58.925Z,29.30
2022-10-17T18:44:26.991Z,29.30
2022-10-17T18:46:58.621Z,29.30
2022-10-17T18:49:30.996Z,29.30
2022-10-17T18:51:59.579Z,29.30
2022-10-17T18:54:27.412Z,29.30
2022-10-17T18:56:56.603Z,29.30
2022-10-17T18:59:24.811Z,29.30
2022-10-17T19:01:53.030Z,29.30
2022-10-17T19:04:21.020Z,29.30
2022-10-17T19:06:50.112Z,29.30
2022-10-17T19:09:18.369Z,29.30
2022-10-17T19:11:46.405Z,29.30
2022-10-17T19:14:15.088Z,29.30
2022-10-17T19:16:46.194Z,29.30
2022-10-17T19:19:16.503Z,29.30
2022-10-17T19:21:45.163Z,29.30
2022-10-17T19:24:17.618Z,29.30
2022-10-17T19:26:47.422Z,29.30
2022-10-17T19:29:18.268Z,29.30
2022-10-17T19:31:46.887Z,29.30
2022-10-17T19:34:17.656Z,29.30
2022-10-17T19:36:46.386Z,29.30
2022-10-17T19:39:19.388Z,29.30
2022-10-17T19:41:49.310Z,29.30
2022-10-17T19:44:18.260Z,29.30
2022-10-17T19:46:46.930Z,29.30
2022-10-17T19:49:15.581Z,29.30
2022-10-17T19:51:43.629Z,29.30
2022-10-17T19:54:11.974Z,29.30
2022-10-17T19:56:43.556Z,29.30
2022-10-17T19:59:14.396Z,29.30
2022-10-17T20:01:43.321Z,29.30
2022-10-17T20:04:12.915Z,29.30
2022-10-17T20:06:42.316Z,29.30
2022-10-17T20:09:16.588Z,29.30
2022-10-17T20:11:46.943Z,29.30
2022-10-17T20:14:14.682Z,29.30
2022-10-17T20:16:44.645Z,29.20
2022-10-17T20:19:14.806Z,29.20
2022-10-17T20:21:44.465Z,29.20
2022-10-17T20:24:15.801Z,29.20
2022-10-17T20:26:44.709Z,29.20
2022-10-17T20:29:17.246Z,29.20
2022-10-17T20:31:47.924Z,29.20
2022-10-17T20:34:18.146Z,29.20
2022-10-17T20:36:46.958Z,29.20
2022-10-17T20:39:17.787Z,29.20
2022-10-17T20:41:46.213Z,29.20
2022-10-17T20:44:15.398Z,29.20
2022-10-17T20:46:52.933Z,29.20
2022-10-17T20:49:28.657Z,29.20
2022-10-17T20:51:56.410Z,29.20
2022-10-17T20:54:24.431Z,29.20
2022-10-17T20:56:52.273Z,29.20
2022-10-17T20:59:22.268Z,29.20
2022-10-17T21:01:50.419Z,29.20
2022-10-17T21:07:06.129Z,29.20
2022-10-17T21:09:34.089Z,29.20
2022-10-17T21:12:04.211Z,29.20
2022-10-17T21:14:33.849Z,29.20
2022-10-17T21:17:04.929Z,29.20
2022-10-17T21:19:33.133Z,29.20
2022-10-17T21:22:00.907Z,29.20
2022-10-17T21:24:28.654Z,29.20
2022-10-17T21:26:57.540Z,29.10
2022-10-17T21:29:25.763Z,29.10
2022-10-17T21:31:54.862Z,29.10
2022-10-17T21:34:25.132Z,29.10
2022-10-17T21:36:53.309Z,29.10
2022-10-17T21:39:21.846Z,29.10
2022-10-17T21:41:49.656Z,29.10
2022-10-17T21:44:20.850Z,29.10
2022-10-17T21:46:49.475Z,29.10
2022-10-17T21:49:21.043Z,29.10
2022-10-17T21:51:49.902Z,29.10
2022-10-17T21:54:20.055Z,29.10
2022-10-17T21:56:48.060Z,29.10
2022-10-17T21:59:16.353Z,29.10
2022-10-17T22:01:46.698Z,29.10
2022-10-17T22:04:20.744Z,29.00
2022-10-17T22:06:52.274Z,29.10
2022-10-17T22:09:25.084Z,29.00
2022-10-17T22:11:56.321Z,29.00
2022-10-17T22:14:27.015Z,29.00
2022-10-17T22:16:55.790Z,29.00
2022-10-17T22:19:28.000Z,29.00
2022-10-17T22:21:56.466Z,29.00
2022-10-17T22:24:24.418Z,29.00
2022-10-17T22:26:52.568Z,29.00
2022-10-17T22:29:21.269Z,29.00
2022-10-17T22:31:49.081Z,29.00
2022-10-17T22:34:18.810Z,28.90
2022-10-17T22:36:48.897Z,28.90
2022-10-17T22:39:16.817Z,28.90
2022-10-17T22:41:44.595Z,28.90
2022-10-17T22:44:12.379Z,28.90
2022-10-17T22:46:40.242Z,28.90
2022-10-17T22:49:08.477Z,28.90
2022-10-17T22:51:36.262Z,28.90
2022-10-17T22:54:05.626Z,28.90
2022-10-17T22:56:33.390Z,28.90
2022-10-17T22:59:01.196Z,28.90
2022-10-17T23:01:28.972Z,28.80
2022-10-17T23:03:56.820Z,28.80
2022-10-17T23:06:25.282Z,28.80
2022-10-17T23:08:53.198Z,28.80
2022-10-17T23:11:22.328Z,28.80
2022-10-17T23:13:50.108Z,28.80
2022-10-17T23:16:18.099Z,28.80
2022-10-17T23:18:45.886Z,28.80
2022-10-17T23:21:13.661Z,28.80
2022-10-17T23:23:41.427Z,28.80
2022-10-17T23:26:12.841Z,28.70
2022-10-17T23:28:43.685Z,28.70
2022-10-17T23:31:16.599Z,28.80
2022-10-17T23:33:46.383Z,28.80
2022-10-17T23:36:16.178Z,28.70
2022-10-17T23:38:46.054Z,28.70
2022-10-17T23:41:15.001Z,28.70
2022-10-17T23:43:44.953Z,28.70
2022-10-17T23:46:13.741Z,28.70
2022-10-17T23:48:42.580Z,28.70
2022-10-17T23:51:11.746Z,28.70
2022-10-17T23:53:41.268Z,28.70
2022-10-17T23:56:11.360Z,28.60
2022-10-17T23:58:40.757Z,28.60
